createdAt,value
2019-05-11T00:01:02.126Z,98.30
2019-05-11T00:03:30.083Z,98.30
2019-05-11T00:05:57.778Z,98.70
2019-05-11T00:08:25.629Z,98.70
2019-05-11T00:10:53.323Z,98.60
2019-05-11T00:13:21.181Z,98.70
2019-05-11T00:15:48.780Z,98.60
2019-05-11T00:18:16.532Z,98.70
2019-05-11T00:20:44.309Z,99.00
2019-05-11T00:23:11.991Z,99.20
2019-05-11T00:25:39.779Z,99.40
2019-05-11T00:28:08.393Z,99.60
2019-05-11T00:30:36.227Z,99.90
2019-05-11T00:33:03.917Z,99.90
2019-05-11T00:35:31.814Z,99.80
2019-05-11T00:37:59.535Z,99.30
2019-05-11T00:40:27.378Z,99.40
2019-05-11T00:42:55.073Z,99.40
2019-05-11T00:45:22.825Z,99.20
2019-05-11T00:47:50.718Z,99.30
2019-05-11T00:50:18.706Z,99.10
2019-05-11T00:52:46.406Z,99.50
2019-05-11T00:55:14.138Z,99.60
2019-05-11T00:57:41.834Z,99.60
2019-05-11T01:00:09.619Z,99.40
2019-05-11T01:02:37.989Z,99.70
2019-05-11T01:05:05.935Z,99.50
2019-05-11T01:07:34.103Z,99.60
2019-05-11T01:10:02.041Z,99.40
2019-05-11T01:12:31.470Z,99.30
2019-05-11T01:14:59.185Z,99.50
2019-05-11T01:17:26.810Z,99.50
2019-05-11T01:19:54.491Z,99.60
2019-05-11T01:22:22.249Z,99.30
2019-05-11T01:24:49.922Z,99.70
2019-05-11T01:27:17.705Z,99.50
2019-05-11T01:29:45.469Z,99.70
2019-05-11T01:32:13.221Z,99.70
2019-05-11T01:34:41.002Z,99.70
2019-05-11T01:37:08.753Z,99.60
2019-05-11T01:39:36.446Z,99.90
2019-05-11T01:42:04.226Z,99.80
2019-05-11T01:44:31.924Z,99.90
2019-05-11T01:46:59.734Z,99.90
2019-05-11T01:49:27.390Z,99.90
2019-05-11T01:51:55.253Z,99.90
2019-05-11T01:54:22.929Z,99.90
2019-05-11T01:56:50.612Z,99.70
2019-05-11T01:59:18.280Z,99.80
2019-05-11T02:01:45.922Z,99.70
2019-05-11T02:04:13.604Z,99.70
2019-05-11T02:06:41.313Z,99.90
2019-05-11T02:09:09.161Z,99.90
2019-05-11T02:11:37.016Z,99.70
2019-05-11T02:14:04.589Z,99.90
2019-05-11T02:16:32.274Z,99.90
2019-05-11T02:19:00.230Z,99.90
2019-05-11T02:21:28.005Z,99.90
2019-05-11T02:23:55.875Z,99.90
2019-05-11T02:26:23.638Z,99.90
2019-05-11T02:28:51.478Z,99.90
2019-05-11T02:31:19.139Z,99.90
2019-05-11T02:33:46.894Z,99.90
2019-05-11T02:36:14.560Z,99.90
2019-05-11T02:38:42.309Z,99.90
2019-05-11T02:41:10.003Z,99.90
2019-05-11T02:43:37.766Z,99.90
2019-05-11T02:46:05.470Z,99.90
2019-05-11T02:48:33.816Z,99.90
2019-05-11T02:51:02.279Z,99.90
2019-05-11T02:56:00.637Z,99.90
2019-05-11T02:58:28.908Z,99.90
2019-05-11T03:00:56.684Z,99.90
2019-05-11T03:03:24.367Z,99.90
2019-05-11T03:05:52.120Z,99.90
2019-05-11T03:08:19.923Z,99.90
2019-05-11T03:10:47.649Z,99.90
2019-05-11T03:13:15.460Z,99.90
2019-05-11T03:15:43.324Z,99.90
2019-05-11T03:18:11.084Z,99.90
2019-05-11T03:20:38.947Z,99.90
2019-05-11T03:23:06.532Z,99.90
2019-05-11T03:25:34.461Z,99.90
2019-05-11T03:28:02.199Z,99.90
2019-05-11T03:30:30.033Z,99.90
2019-05-11T03:32:57.605Z,99.90
2019-05-11T03:35:25.384Z,99.90
2019-05-11T03:37:53.174Z,99.90
2019-05-11T03:40:20.951Z,99.90
2019-05-11T03:42:48.639Z,99.90
2019-05-11T03:45:16.435Z,99.90
2019-05-11T03:47:44.226Z,99.90
2019-05-11T03:50:12.575Z,99.90
2019-05-11T03:52:40.770Z,99.90
2019-05-11T03:55:08.758Z,99.90
2019-05-11T03:57:36.917Z,99.90
2019-05-11T04:00:04.976Z,99.90
2019-05-11T04:02:33.592Z,99.90
2019-05-11T04:05:01.307Z,99.90
2019-05-11T04:07:30.674Z,99.90
2019-05-11T04:09:58.344Z,99.90
2019-05-11T04:12:35.004Z,99.90
2019-05-11T04:14:55.658Z,99.90
2019-05-11T04:17:23.514Z,99.90
2019-05-11T04:19:51.190Z,99.90
2019-05-11T04:22:19.035Z,99.90
2019-05-11T04:24:46.719Z,99.90
2019-05-11T04:27:19.192Z,99.90
2019-05-11T04:29:44.456Z,99.90
2019-05-11T04:32:12.218Z,99.90
2019-05-11T04:34:39.904Z,99.90
2019-05-11T04:37:07.552Z,99.90
2019-05-11T04:39:35.200Z,99.90
2019-05-11T04:42:03.130Z,99.90
2019-05-11T04:44:30.794Z,99.90
2019-05-11T04:46:58.523Z,99.90
2019-05-11T04:49:26.287Z,99.90
2019-05-11T04:51:54.099Z,99.90
2019-05-11T04:54:21.787Z,99.90
2019-05-11T04:56:49.570Z,99.90
2019-05-11T04:59:17.229Z,99.90
2019-05-11T05:01:44.993Z,99.90
2019-05-11T05:04:14.350Z,99.90
2019-05-11T05:06:42.170Z,99.90
2019-05-11T05:09:10.062Z,99.90
2019-05-11T05:11:38.496Z,99.90
2019-05-11T05:14:08.119Z,99.90
2019-05-11T05:16:36.057Z,99.90
2019-05-11T05:19:03.811Z,99.90
2019-05-11T05:21:31.658Z,99.90
2019-05-11T05:23:59.406Z,99.90
2019-05-11T05:26:27.093Z,99.90
2019-05-11T05:28:54.908Z,99.90
2019-05-11T05:31:22.475Z,99.90
2019-05-11T05:33:50.250Z,99.90
2019-05-11T05:36:17.947Z,99.90
2019-05-11T05:38:45.719Z,99.90
2019-05-11T05:41:13.445Z,99.90
2019-05-11T05:43:41.384Z,99.90
2019-05-11T05:46:09.071Z,99.90
2019-05-11T05:48:36.651Z,99.90
2019-05-11T05:51:04.403Z,99.90
2019-05-11T05:53:32.154Z,99.90
2019-05-11T05:55:59.855Z,99.90
2019-05-11T05:58:27.570Z,99.90
2019-05-11T06:00:55.462Z,99.90
2019-05-11T06:03:23.153Z,99.90
2019-05-11T06:05:50.890Z,99.90
2019-05-11T06:08:18.655Z,99.90
2019-05-11T06:10:46.592Z,99.90
2019-05-11T06:13:14.368Z,99.90
2019-05-11T06:15:42.311Z,99.90
2019-05-11T06:18:10.369Z,99.90
2019-05-11T06:20:38.198Z,99.90
2019-05-11T06:23:05.893Z,99.90
2019-05-11T06:25:33.842Z,99.90
2019-05-11T06:28:01.553Z,99.90
2019-05-11T06:30:29.539Z,99.90
2019-05-11T06:32:57.221Z,99.90
2019-05-11T06:35:25.021Z,99.90
2019-05-11T06:37:52.911Z,99.90
2019-05-11T06:40:20.622Z,99.90
2019-05-11T06:42:48.385Z,99.90
2019-05-11T06:45:16.480Z,99.90
2019-05-11T06:47:44.337Z,99.90
2019-05-11T06:50:12.260Z,99.90
2019-05-11T06:52:40.349Z,99.90
2019-05-11T06:55:08.047Z,99.90
2019-05-11T06:57:36.234Z,99.90
2019-05-11T07:00:04.511Z,99.90
2019-05-11T07:02:32.975Z,99.90
2019-05-11T07:05:00.689Z,99.90
2019-05-11T07:07:28.493Z,99.90
2019-05-11T07:09:56.242Z,99.90
2019-05-11T07:12:27.175Z,99.90
2019-05-11T07:14:53.495Z,99.90
2019-05-11T07:17:21.242Z,99.90
2019-05-11T07:19:49.045Z,99.90
2019-05-11T07:22:16.837Z,99.90
2019-05-11T07:24:44.674Z,99.90
2019-05-11T07:27:12.283Z,99.90
2019-05-11T07:29:40.037Z,99.90
2019-05-11T07:32:19.634Z,99.90
2019-05-11T07:34:38.340Z,99.90
2019-05-11T07:37:08.261Z,99.90
2019-05-11T07:39:38.180Z,99.90
2019-05-11T07:42:07.641Z,99.90
2019-05-11T07:44:38.808Z,99.90
2019-05-11T07:47:05.077Z,99.90
2019-05-11T07:49:32.861Z,99.90
2019-05-11T07:52:00.568Z,99.90
2019-05-11T07:54:28.321Z,99.90
2019-05-11T07:56:58.331Z,99.90
2019-05-11T07:59:28.734Z,99.90
2019-05-11T08:01:58.158Z,99.90
2019-05-11T08:04:25.596Z,99.90
2019-05-11T08:06:53.287Z,99.90
2019-05-11T08:09:21.139Z,99.90
2019-05-11T08:11:48.922Z,99.90
2019-05-11T08:14:18.285Z,99.90
2019-05-11T08:16:48.024Z,99.90
2019-05-11T08:19:18.215Z,99.70
2019-05-11T08:21:45.465Z,99.10
2019-05-11T08:24:13.265Z,99.00
2019-05-11T08:26:40.968Z,99.30
2019-05-11T08:29:08.844Z,98.90
2019-05-11T08:31:38.554Z,98.10
2019-05-11T08:34:08.667Z,99.70
2019-05-11T08:36:37.846Z,98.00
2019-05-11T08:39:07.754Z,97.70
2019-05-11T08:41:38.226Z,97.10
2019-05-11T08:44:05.846Z,96.90
2019-05-11T08:46:33.666Z,96.60
2019-05-11T08:49:01.466Z,97.10
2019-05-11T08:51:29.349Z,96.40
2019-05-11T08:53:58.376Z,96.60
2019-05-11T08:56:28.738Z,95.70
2019-05-11T08:58:58.585Z,94.30
2019-05-11T09:01:25.825Z,96.70
2019-05-11T09:03:53.684Z,97.40
2019-05-11T09:06:21.432Z,98.00
2019-05-11T09:08:49.487Z,98.20
2019-05-11T09:11:19.043Z,98.80
2019-05-11T09:13:48.886Z,99.50
2019-05-11T09:16:19.109Z,99.70
2019-05-11T09:18:47.948Z,99.30
2019-05-11T09:21:16.033Z,98.50
2019-05-11T09:23:43.726Z,97.70
2019-05-11T09:26:11.599Z,98.00
2019-05-11T09:28:39.292Z,96.90
2019-05-11T09:31:08.570Z,96.50
2019-05-11T09:33:38.417Z,94.40
2019-05-11T09:36:08.344Z,93.50
2019-05-11T09:38:38.181Z,92.00
2019-05-11T09:41:08.085Z,91.40
2019-05-11T09:43:37.545Z,91.40
2019-05-11T09:46:04.968Z,86.20
2019-05-11T09:48:32.884Z,89.20
2019-05-11T09:51:00.579Z,82.50
2019-05-11T09:53:28.523Z,83.00
2019-05-11T09:55:58.507Z,81.30
2019-05-11T09:58:27.932Z,79.70
2019-05-11T10:00:55.458Z,80.50
2019-05-11T10:03:23.150Z,77.40
2019-05-11T10:05:50.854Z,79.50
2019-05-11T10:08:18.675Z,77.90
2019-05-11T10:10:48.644Z,75.60
2019-05-11T10:13:18.416Z,76.70
2019-05-11T10:16:00.040Z,74.80
2019-05-11T10:18:15.281Z,76.10
2019-05-11T10:20:43.019Z,76.90
2019-05-11T10:23:10.899Z,72.30
2019-05-11T10:25:39.199Z,75.20
2019-05-11T10:28:08.656Z,71.70
2019-05-11T10:30:38.597Z,70.60
2019-05-11T10:33:08.297Z,73.90
2019-05-11T10:35:37.818Z,68.40
2019-05-11T10:38:05.758Z,69.10
2019-05-11T10:40:33.558Z,70.40
2019-05-11T10:43:01.298Z,69.10
2019-05-11T11:40:31.531Z,64.20
2019-05-11T11:42:58.700Z,63.50
2019-05-11T11:45:31.069Z,66.20
2019-05-11T11:48:08.470Z,66.20
2019-05-11T11:51:00.886Z,63.90
2019-05-11T11:53:33.486Z,63.60
2019-05-11T11:56:19.075Z,63.10
2019-05-11T11:58:51.958Z,62.10
2019-05-11T12:01:24.716Z,63.70
2019-05-11T12:03:58.107Z,64.70
2019-05-11T12:06:28.213Z,62.70
2019-05-11T12:09:03.368Z,62.60
2019-05-11T12:11:38.989Z,63.70
2019-05-11T12:14:30.265Z,63.10
2019-05-11T12:17:08.691Z,65.40
2019-05-11T12:19:58.554Z,64.70
2019-05-11T12:22:38.520Z,63.70
2019-05-11T12:25:13.131Z,62.10
2019-05-11T12:27:43.878Z,61.50
2019-05-11T12:30:22.692Z,60.70
2019-05-11T12:33:14.756Z,62.50
2019-05-11T12:35:47.995Z,60.80
2019-05-11T12:38:19.650Z,60.30
2019-05-11T12:40:57.746Z,62.40
2019-05-11T12:43:35.641Z,61.80
2019-05-11T12:46:11.312Z,58.50
2019-05-11T12:48:59.210Z,58.80
2019-05-11T12:51:53.498Z,60.80
2019-05-11T12:54:13.094Z,59.60
2019-05-11T12:56:51.532Z,57.70
2019-05-11T12:59:27.721Z,58.70
2019-05-11T13:01:59.286Z,58.90
2019-05-11T13:04:38.443Z,57.10
2019-05-11T13:07:08.665Z,56.60
2019-05-11T13:09:48.275Z,57.00
2019-05-11T13:12:19.026Z,56.70
2019-05-11T13:14:58.009Z,56.40
2019-05-11T13:17:38.411Z,57.30
2019-05-11T13:20:14.565Z,55.90
2019-05-11T13:22:48.680Z,56.70
2019-05-11T13:28:51.421Z,63.70
2019-05-11T13:31:21.431Z,68.90
2019-05-11T13:33:52.678Z,71.20
2019-05-11T13:36:20.490Z,74.20
2019-05-11T13:38:48.596Z,78.80
2019-05-11T13:41:18.736Z,80.00
2019-05-11T13:43:48.345Z,77.70
2019-05-11T13:46:18.040Z,76.10
2019-05-11T14:07:13.704Z,72.70
2019-05-11T14:09:49.383Z,73.10
2019-05-11T14:12:22.102Z,70.40
2019-05-11T14:14:53.395Z,67.60
2019-05-11T14:17:31.971Z,69.50
2019-05-11T14:20:01.323Z,68.30
2019-05-11T14:22:33.983Z,69.00
2019-05-11T14:25:32.631Z,70.10
2019-05-11T14:31:41.825Z,81.90
2019-05-11T14:34:09.722Z,88.10
2019-05-11T14:36:38.777Z,90.90
2019-05-11T14:39:08.456Z,91.70
2019-05-11T14:41:38.000Z,92.30
2019-05-11T14:44:08.574Z,93.00
2019-05-11T14:46:38.214Z,92.90
2019-05-11T14:49:07.725Z,93.70
2019-05-11T14:51:35.251Z,93.60
2019-05-11T14:54:03.074Z,94.50
2019-05-11T14:56:33.978Z,94.50
2019-05-11T14:59:01.782Z,94.20
2019-05-11T15:01:29.515Z,94.50
2019-05-11T15:03:58.877Z,95.40
2019-05-11T15:06:27.911Z,95.50
2019-05-11T15:08:58.089Z,95.70
2019-05-11T15:11:25.556Z,95.80
2019-05-11T15:13:53.359Z,95.10
2019-05-11T15:16:21.167Z,95.00
2019-05-11T15:18:48.983Z,95.20
2019-05-11T15:21:18.659Z,95.90
2019-05-11T15:23:47.734Z,95.80
2019-05-11T15:26:15.714Z,95.30
2019-05-11T15:28:43.456Z,95.60
2019-05-11T15:31:11.248Z,95.70
2019-05-11T15:33:38.992Z,95.20
2019-05-11T15:36:07.622Z,95.20
2019-05-11T15:38:37.678Z,95.60
2019-05-11T15:41:05.165Z,95.20
2019-05-11T15:43:32.850Z,95.30
2019-05-11T15:46:00.694Z,95.60
2019-05-11T15:48:28.412Z,95.90
2019-05-11T15:50:57.780Z,96.20
2019-05-11T15:53:25.634Z,96.80
2019-05-11T15:55:53.418Z,96.60
2019-05-11T15:58:21.810Z,96.00
2019-05-11T16:00:49.624Z,96.30
2019-05-11T16:03:18.624Z,96.20
2019-05-11T16:05:47.921Z,96.50
2019-05-11T16:08:18.618Z,96.00
2019-05-11T16:10:45.583Z,95.90
2019-05-11T16:13:13.361Z,95.40
2019-05-11T16:15:41.090Z,95.70
2019-05-11T16:18:09.389Z,96.20
2019-05-11T16:20:37.094Z,96.30
2019-05-11T16:23:04.923Z,96.50
2019-05-11T16:25:32.643Z,96.50
2019-05-11T16:28:00.516Z,96.20
2019-05-11T16:30:28.780Z,96.60
2019-05-11T16:32:58.069Z,97.20
2019-05-11T16:35:27.968Z,97.70
2019-05-11T16:37:55.592Z,98.70
2019-05-11T16:40:23.307Z,99.20
2019-05-11T16:42:51.194Z,99.40
2019-05-11T16:45:19.462Z,99.90
2019-05-11T16:47:48.265Z,99.90
2019-05-11T16:50:18.026Z,99.90
2019-05-11T16:52:48.137Z,99.90
2019-05-11T16:55:18.191Z,99.90
2019-05-11T16:57:48.013Z,99.90
2019-05-11T17:00:15.410Z,99.90
2019-05-11T17:02:43.534Z,99.90
2019-05-11T17:05:25.344Z,99.90
2019-05-11T17:07:41.115Z,99.90
2019-05-11T17:10:09.617Z,99.90
2019-05-11T17:12:38.531Z,99.90
2019-05-11T17:15:08.851Z,99.90
2019-05-11T17:17:36.974Z,99.90
2019-05-11T17:20:05.195Z,99.90
2019-05-11T17:22:34.489Z,99.90
2019-05-11T17:25:02.461Z,99.90
2019-05-11T17:27:31.828Z,99.90
2019-05-11T17:29:59.696Z,99.90
2019-05-11T17:32:29.330Z,99.90
2019-05-11T17:34:58.138Z,99.90
2019-05-11T17:37:28.384Z,99.90
2019-05-11T17:39:55.735Z,99.90
2019-05-11T17:42:23.444Z,99.90
2019-05-11T17:44:51.259Z,99.90
2019-05-11T17:47:19.034Z,99.90
2019-05-11T17:49:59.117Z,99.90
2019-05-11T17:52:18.839Z,99.90
2019-05-11T17:54:47.752Z,99.90
2019-05-11T17:57:15.831Z,99.90
2019-05-11T17:59:43.741Z,99.90
2019-05-11T18:02:11.523Z,99.90
2019-05-11T18:04:39.804Z,99.90
2019-05-11T18:07:07.683Z,99.90
2019-05-11T18:09:35.508Z,99.90
2019-05-11T18:12:03.365Z,99.90
2019-05-11T18:14:31.222Z,99.90
2019-05-11T18:16:59.131Z,99.90
2019-05-11T18:19:27.646Z,99.90
2019-05-11T18:21:57.644Z,99.90
2019-05-11T18:24:25.258Z,99.90
2019-05-11T18:26:53.064Z,99.90
2019-05-11T18:29:20.821Z,99.90
2019-05-11T18:31:48.732Z,99.90
2019-05-11T18:34:17.846Z,99.90
2019-05-11T18:36:45.874Z,99.90
2019-05-11T18:39:13.622Z,99.90
2019-05-11T18:41:41.414Z,99.90
2019-05-11T18:44:09.202Z,99.90
2019-05-11T18:46:38.909Z,99.90
2019-05-11T18:49:06.797Z,99.90
2019-05-11T18:51:34.633Z,99.90
2019-05-11T18:54:02.394Z,99.90
2019-05-11T18:56:30.350Z,99.90
2019-05-11T18:58:58.410Z,99.90
2019-05-11T19:01:28.424Z,99.90
2019-05-11T19:03:56.011Z,99.90
2019-05-11T19:06:23.721Z,99.90
2019-05-11T19:08:51.549Z,99.90
2019-05-11T19:11:19.309Z,99.90
2019-05-11T19:13:47.807Z,99.90
2019-05-11T19:16:15.653Z,99.90
2019-05-11T19:18:43.502Z,99.90
2019-05-11T19:21:11.238Z,99.90
2019-05-11T19:23:39.054Z,99.90
2019-05-11T19:26:08.353Z,99.90
2019-05-11T19:28:38.442Z,99.90
2019-05-11T19:31:10.874Z,99.90
2019-05-11T19:33:38.122Z,99.90
2019-05-11T19:36:07.772Z,99.90
2019-05-11T19:38:35.602Z,99.90
2019-05-11T19:41:03.374Z,99.90
2019-05-11T19:43:31.300Z,99.90
2019-05-11T19:45:59.117Z,99.90
2019-05-11T19:48:27.998Z,99.90
2019-05-11T19:51:04.650Z,99.90
2019-05-11T19:53:28.098Z,99.90
2019-05-11T19:55:58.214Z,99.90
2019-05-11T19:58:26.011Z,99.90
2019-05-11T20:00:53.918Z,99.90
2019-05-11T20:03:21.666Z,99.90
2019-05-11T20:05:49.487Z,99.90
2019-05-11T20:08:18.463Z,99.90
2019-05-11T20:10:48.596Z,99.90
2019-05-11T20:13:17.953Z,99.90
2019-05-11T20:15:48.324Z,99.90
2019-05-11T20:21:15.549Z,99.90
2019-05-11T20:23:33.196Z,99.90
2019-05-11T20:26:01.043Z,99.90
2019-05-11T20:28:28.818Z,99.90
2019-05-11T20:30:58.698Z,99.90
2019-05-11T20:33:27.944Z,99.90
2019-05-11T20:35:57.943Z,99.90
2019-05-11T20:38:27.931Z,99.90
2019-05-11T20:40:57.762Z,99.90
2019-05-11T20:43:28.011Z,99.90
2019-05-11T20:45:56.350Z,99.90
2019-05-11T20:48:24.186Z,99.90
2019-05-11T20:50:52.045Z,99.90
2019-05-11T20:53:19.902Z,99.90
2019-05-11T20:55:48.049Z,99.90
2019-05-11T20:58:18.994Z,99.90
2019-05-11T21:00:45.864Z,99.90
2019-05-11T21:03:13.650Z,99.90
2019-05-11T21:05:41.384Z,99.90
2019-05-11T21:08:09.257Z,99.90
2019-05-11T21:10:38.573Z,99.90
2019-05-11T21:13:08.618Z,99.90
2019-05-11T21:15:38.323Z,99.90
2019-05-11T21:18:07.876Z,99.90
2019-05-11T21:20:37.952Z,99.90
2019-05-11T21:23:05.407Z,99.90
2019-05-11T21:25:33.149Z,99.90
2019-05-11T21:28:01.104Z,99.90
2019-05-11T21:30:28.893Z,99.90
2019-05-11T21:32:58.209Z,99.90
2019-05-11T21:35:28.105Z,99.90
2019-05-11T21:37:57.982Z,99.90
2019-05-11T21:40:25.962Z,99.90
2019-05-11T21:42:53.760Z,99.90
2019-05-11T21:45:21.662Z,99.90
2019-05-11T21:47:49.498Z,99.90
2019-05-11T21:50:19.033Z,99.90
2019-05-11T21:52:48.400Z,99.90
2019-05-11T21:55:16.399Z,99.90
2019-05-11T21:57:44.299Z,99.90
2019-05-11T22:00:12.461Z,99.90
2019-05-11T22:02:40.755Z,99.90
2019-05-11T22:05:09.002Z,99.90
2019-05-11T22:07:41.374Z,99.90
2019-05-11T22:10:08.885Z,99.90
2019-05-11T22:12:38.995Z,99.90
2019-05-11T22:15:09.301Z,99.90
2019-05-11T22:17:39.312Z,99.90
2019-05-11T22:20:07.732Z,99.90
2019-05-11T22:22:35.658Z,99.90
2019-05-11T22:25:03.610Z,99.90
2019-05-11T22:27:31.848Z,99.90
2019-05-11T22:29:59.670Z,99.90
2019-05-11T22:32:28.519Z,99.90
2019-05-11T22:34:58.241Z,99.90
2019-05-11T22:37:27.738Z,99.90
2019-05-11T22:39:57.751Z,99.90
2019-05-11T22:42:28.167Z,99.90
2019-05-11T22:44:56.111Z,99.90
2019-05-11T22:47:23.862Z,99.90
2019-05-11T22:49:54.373Z,99.90
2019-05-11T22:52:33.053Z,99.90
2019-05-11T22:54:51.798Z,99.90
2019-05-11T22:57:19.757Z,99.90
2019-05-11T22:59:47.608Z,99.90
2019-05-11T23:02:15.367Z,99.90
2019-05-11T23:04:43.411Z,99.90
2019-05-11T23:07:11.218Z,99.90
2019-05-11T23:09:39.094Z,99.90
2019-05-11T23:12:09.029Z,99.90
2019-05-11T23:14:37.688Z,99.90
2019-05-11T23:17:07.933Z,99.90
2019-05-11T23:19:35.278Z,99.90
2019-05-11T23:22:05.433Z,99.90
2019-05-11T23:24:32.954Z,99.90
2019-05-11T23:27:00.800Z,99.90
2019-05-11T23:29:28.522Z,99.90
2019-05-11T23:31:58.240Z,99.90
2019-05-11T23:34:28.100Z,99.90
2019-05-11T23:36:55.748Z,99.90
2019-05-11T23:39:23.595Z,99.90
2019-05-11T23:41:51.438Z,99.90
2019-05-11T23:44:19.216Z,99.90
2019-05-11T23:46:47.848Z,99.90
2019-05-11T23:49:17.764Z,99.90
2019-05-11T23:51:47.687Z,99.90
2019-05-11T23:54:15.031Z,99.90
2019-05-11T23:56:42.894Z,99.90
2019-05-11T23:59:10.611Z,99.90
